Time;durP1;ratioP1;P1;durP2;ratioP2;P2;SDS_P1;SDS_P2;PMS_P1;PMS_P2;Temp;Humidity;BMP_temperature;BMP_pressure;BME280_temperature;BME280_humidity;BME280_pressure;Samples;Min_cycle;Max_cycle;Signal;HPM_P1;HPM_P2
2023/08/28 00:04:18;;;;;;;2.60;1.02;;;;;;;14.99;100.00;97384.38;18299263;32;20073;-57
2023/08/28 00:14:21;;;;;;;1.48;0.60;;;;;;;14.95;100.00;97402.44;18298704;32;20455;-57
2023/08/28 00:24:23;;;;;;;4.05;0.95;;;;;;;14.94;100.00;97387.22;18298019;32;20058;-56
2023/08/28 00:34:26;;;;;;;2.33;0.82;;;;;;;14.84;100.00;97364.56;18297481;32;20063;-57
2023/08/28 00:44:28;;;;;;;6.35;1.17;;;;;;;14.81;100.00;97365.16;18297341;32;20062;-57
2023/08/28 00:54:31;;;;;;;3.22;1.02;;;;;;;14.74;100.00;97371.03;18283124;32;20102;-56
2023/08/28 01:04:33;;;;;;;3.08;0.95;;;;;;;14.77;100.00;97391.38;18295799;32;20073;-56
2023/08/28 01:14:49;;;;;;;3.53;0.82;;;;;;;14.74;100.00;97370.22;18282369;32;20050;-57
2023/08/28 01:24:56;;;;;;;1.37;0.88;;;;;;;14.70;100.00;97337.38;18295397;32;20062;-57
2023/08/28 01:35:00;;;;;;;3.35;0.60;;;;;;;14.63;100.00;97330.72;18294563;32;20102;-57
2023/08/28 01:45:03;;;;;;;1.80;1.02;;;;;;;14.51;100.00;97315.72;18294686;32;20516;-56
2023/08/28 01:55:06;;;;;;;4.47;1.20;;;;;;;14.59;100.00;97286.97;18294219;32;20109;-56
2023/08/28 02:05:08;;;;;;;3.70;1.27;;;;;;;14.69;100.00;97291.41;18293655;32;20493;-56
2023/08/28 02:15:11;;;;;;;2.65;1.00;;;;;;;14.76;100.00;97280.94;18303186;32;20442;-57
2023/08/28 02:25:13;;;;;;;3.08;0.85;;;;;;;14.83;100.00;97291.41;18290451;32;20054;-57
2023/08/28 02:35:15;;;;;;;1.40;1.10;;;;;;;14.83;100.00;97305.78;18289552;32;20080;-56
2023/08/28 02:45:18;;;;;;;3.15;1.15;;;;;;;14.87;100.00;97286.94;18303147;32;20480;-56
2023/08/28 02:55:20;;;;;;;1.45;1.12;;;;;;;14.86;100.00;97269.78;18302566;32;20049;-56
2023/08/28 03:05:22;;;;;;;3.67;1.40;;;;;;;14.81;100.00;97256.28;18302209;32;20058;-56
2023/08/28 03:15:25;;;;;;;2.25;1.40;;;;;;;14.79;100.00;97255.81;18301639;32;20434;-56
2023/08/28 03:25:28;;;;;;;2.47;1.70;;;;;;;14.67;100.00;97239.22;18300801;32;20111;-57
2023/08/28 03:35:30;;;;;;;1.80;1.40;;;;;;;14.61;100.00;97241.22;18300323;32;20075;-57
2023/08/28 03:45:32;;;;;;;2.87;2.33;;;;;;;14.57;100.00;97240.22;18300222;32;20373;-57
2023/08/28 03:55:35;;;;;;;4.57;2.87;;;;;;;14.47;100.00;97226.84;18299736;32;20072;-56
2023/08/28 04:05:38;;;;;;;10.00;3.47;;;;;;;14.46;100.00;97211.63;18284854;32;20057;-56
2023/08/28 04:15:40;;;;;;;4.70;3.47;;;;;;;14.50;100.00;97191.69;18298741;32;20061;-56
2023/08/28 04:25:43;;;;;;;5.22;3.28;;;;;;;14.54;100.00;97187.22;18298804;32;20094;-56
2023/08/28 04:35:45;;;;;;;3.70;3.17;;;;;;;14.53;100.00;97198.44;18296548;32;20046;-57
2023/08/28 04:45:50;;;;;;;4.50;2.83;;;;;;;14.56;100.00;97214.91;18283877;32;20105;-57
2023/08/28 04:55:55;;;;;;;5.78;3.25;;;;;;;14.53;100.00;97214.75;18297761;32;20055;-57
2023/08/28 05:05:57;;;;;;;5.70;3.40;;;;;;;14.53;100.00;97207.38;18296283;32;20105;-57
2023/08/28 05:16:00;;;;;;;3.22;2.92;;;;;;;14.51;100.00;97206.91;18295661;32;20475;-57
2023/08/28 05:26:02;;;;;;;3.92;3.10;;;;;;;14.44;100.00;97222.81;18295390;32;20125;-57
2023/08/28 05:36:05;;;;;;;3.97;3.03;;;;;;;14.52;100.00;97226.72;18294504;32;20084;-56
2023/08/28 05:46:07;;;;;;;3.40;2.78;;;;;;;14.48;100.00;97231.97;18294367;32;20109;-56
2023/08/28 05:56:11;;;;;;;3.72;2.60;;;;;;;14.41;100.00;97228.88;18293932;32;20058;-58
2023/08/28 06:06:14;;;;;;;2.90;2.58;;;;;;;14.45;100.00;97232.59;18294188;32;20113;-58
2023/08/28 06:16:16;;;;;;;3.10;2.47;;;;;;;14.34;100.00;97215.69;18279883;32;20101;-58
2023/08/28 06:26:20;;;;;;;3.97;2.70;;;;;;;14.44;100.00;97205.69;18279533;32;20068;-59
2023/08/28 06:36:22;;;;;;;3.20;1.90;;;;;;;14.54;100.00;97189.94;18292198;32;20113;-58
2023/08/28 06:46:27;;;;;;;4.73;1.97;;;;;;;14.60;100.00;97206.16;18292232;32;20122;-56
2023/08/28 06:56:29;;;;;;;3.33;1.98;;;;;;;14.71;100.00;97183.06;18294847;32;20076;-56
2023/08/28 07:06:33;;;;;;;2.80;2.17;;;;;;;14.72;100.00;97198.28;18302204;32;20058;-56
2023/08/28 07:16:36;;;;;;;4.83;2.37;;;;;;;14.63;100.00;97202.84;18302084;32;20050;-57
2023/08/28 07:26:39;;;;;;;3.30;2.00;;;;;;;14.72;100.00;97196.37;18301296;32;20077;-57
2023/08/28 07:36:44;;;;;;;4.18;2.40;;;;;;;14.68;100.00;97175.53;18300542;32;20486;-56
2023/08/28 07:46:46;;;;;;;2.53;2.12;;;;;;;14.71;100.00;97192.03;18300059;32;20460;-57
2023/08/28 07:56:49;;;;;;;3.72;2.25;;;;;;;14.72;100.00;97195.56;18299742;32;20058;-57
2023/08/28 08:06:52;;;;;;;3.80;2.73;;;;;;;14.68;100.00;97180.97;18285226;32;20062;-57
2023/08/28 08:16:55;;;;;;;3.35;2.70;;;;;;;14.73;100.00;97199.88;18284979;32;20331;-57
2023/08/28 08:26:58;;;;;;;4.60;3.27;;;;;;;14.79;100.00;97200.59;18298534;32;20086;-57
2023/08/28 08:37:02;;;;;;;3.13;2.80;;;;;;;14.82;100.00;97208.91;18297255;32;20076;-57
2023/08/28 08:47:05;;;;;;;4.37;2.60;;;;;;;14.83;100.00;97188.75;18297637;32;20084;-57
2023/08/28 08:57:25;;;;;;;3.55;3.12;;;;;;;14.78;100.00;97182.63;18283332;32;20112;-57
2023/08/28 09:07:29;;;;;;;3.53;2.67;;;;;;;14.97;100.00;97194.13;18296768;32;20098;-57
2023/08/28 09:17:38;;;;;;;2.92;2.62;;;;;;;15.07;100.00;97202.06;18281743;32;20068;-57
2023/08/28 09:27:43;;;;;;;5.97;3.10;;;;;;;15.14;100.00;97207.03;18295985;32;20088;-57
2023/08/28 09:38:01;;;;;;;8.45;4.20;;;;;;;15.08;100.00;97195.47;18294712;32;20453;-57
2023/08/28 09:48:05;;;;;;;4.85;4.35;;;;;;;14.97;100.00;97175.06;18294659;32;20483;-57
2023/08/28 09:58:10;;;;;;;6.28;4.37;;;;;;;15.03;100.00;97173.84;18294029;32;20090;-57
2023/08/28 10:08:15;;;;;;;3.97;3.62;;;;;;;15.34;100.00;97180.41;18267523;32;20111;-57
2023/08/28 10:18:44;;;;;;;4.40;4.00;;;;;;;15.47;100.00;97175.97;18293591;32;20102;-59
2023/08/28 10:28:49;;;;;;;3.45;3.03;;;;;;;15.73;100.00;97178.78;18280899;32;20058;-59
2023/08/28 10:38:54;;;;;;;7.12;3.10;;;;;;;15.70;100.00;97177.50;18303540;32;20109;-59
2023/08/28 10:49:04;;;;;;;4.12;3.15;;;;;;;15.72;100.00;97158.91;18303363;32;20418;-59
2023/08/28 10:59:24;;;;;;;5.68;3.30;;;;;;;15.84;100.00;97162.97;18302894;32;20102;-59
2023/08/28 11:09:30;;;;;;;4.90;2.80;;;;;;;16.05;100.00;97163.22;18302281;32;20076;-59
2023/08/28 11:19:55;;;;;;;2.40;1.77;;;;;;;16.43;100.00;97151.66;18301854;32;20072;-59
2023/08/28 11:30:06;;;;;;;3.58;1.45;;;;;;;16.83;100.00;97156.97;18301300;32;20116;-59
2023/08/28 11:40:10;;;;;;;3.97;1.40;;;;;;;16.78;100.00;97152.44;18300322;32;20125;-59
2023/08/28 11:50:14;;;;;;;2.17;1.92;;;;;;;16.67;100.00;97155.84;18286259;32;20119;-59
2023/08/28 12:00:17;;;;;;;5.57;1.70;;;;;;;16.34;100.00;97139.97;18299834;32;20069;-59
2023/08/28 12:10:21;;;;;;;3.35;1.92;;;;;;;16.29;100.00;97143.63;18299099;32;20354;-59
2023/08/28 12:20:24;;;;;;;3.05;1.77;;;;;;;16.32;100.00;97131.28;18298594;32;20101;-59
2023/08/28 12:30:27;;;;;;;5.55;2.92;;;;;;;16.35;100.00;97130.63;18298311;32;20403;-57
2023/08/28 12:40:36;;;;;;;;;;;;;;;16.15;100.00;97132.09;18284392;32;20094;-57
2023/08/28 12:50:39;;;;;;;6.65;4.05;;;;;;;16.13;100.00;97151.50;18297342;32;20046;-57
2023/08/28 13:00:44;;;;;;;4.70;3.33;;;;;;;16.01;100.00;97154.06;18296116;32;20092;-57
2023/08/28 13:10:48;;;;;;;4.80;3.10;;;;;;;15.95;100.00;97155.31;18282924;32;20080;-57
2023/08/28 13:20:51;;;;;;;3.62;2.90;;;;;;;15.59;100.00;97159.84;18268613;32;20046;-57
2023/08/28 13:31:00;;;;;;;3.47;3.00;;;;;;;15.65;100.00;97164.03;18295150;32;20141;-57
2023/08/28 13:41:03;;;;;;;4.43;3.50;;;;;;;15.52;100.00;97173.91;18230894;32;20102;-57
2023/08/28 13:51:07;;;;;;;6.67;3.57;;;;;;;15.73;100.00;97185.06;18232343;32;20062;-57
2023/08/28 14:01:09;;;;;;;3.37;2.50;;;;;;;15.85;100.00;97195.38;18231636;32;20519;-57
2023/08/28 14:11:12;;;;;;;3.78;2.12;;;;;;;15.56;100.00;97191.25;18240521;32;20066;-57
2023/08/28 14:21:16;;;;;;;3.33;1.80;;;;;;;15.39;100.00;97204.81;18240441;32;20046;-57
2023/08/28 14:31:19;;;;;;;3.67;1.83;;;;;;;15.47;100.00;97214.13;18240861;32;20097;-57
2023/08/28 14:41:22;;;;;;;2.67;2.10;;;;;;;15.16;100.00;97213.00;18294012;32;20073;-57
2023/08/28 14:51:26;;;;;;;5.20;2.37;;;;;;;15.38;100.00;97220.31;18303160;32;20484;-57
2023/08/28 15:01:29;;;;;;;2.47;2.17;;;;;;;15.29;100.00;97224.91;18302908;32;20149;-57
2023/08/28 15:11:32;;;;;;;2.23;2.03;;;;;;;15.25;100.00;97230.19;18288270;32;20072;-57
2023/08/28 15:21:37;;;;;;;4.90;2.10;;;;;;;15.29;100.00;97235.00;18301001;32;20482;-57
2023/08/28 15:31:40;;;;;;;3.90;1.98;;;;;;;15.23;100.00;97250.69;18274916;32;20054;-58
2023/08/28 15:41:44;;;;;;;;;;;;;;;15.12;100.00;97250.13;18300791;32;20078;-59
2023/08/28 15:51:47;;;;;;;4.07;2.33;;;;;;;15.08;100.00;97251.88;18301026;32;19949;-59
2023/08/28 16:01:53;;;;;;;;;;;;;;;15.11;100.00;97264.06;18299954;32;20441;-59
2023/08/28 16:11:57;;;;;;;3.12;1.90;;;;;;;15.05;100.00;97274.28;18299675;32;19954;-59
2023/08/28 16:22:03;;;;;;;2.22;1.70;;;;;;;14.82;100.00;97274.25;18298795;32;20077;-59
2023/08/28 16:32:06;;;;;;;1.90;1.50;;;;;;;14.60;100.00;97282.34;18297897;32;20081;-59
2023/08/28 16:42:09;;;;;;;2.75;2.08;;;;;;;14.60;100.00;97277.69;18297481;32;20109;-59
2023/08/28 16:52:12;;;;;;;2.70;2.20;;;;;;;14.67;100.00;97288.19;18297168;32;20054;-59
2023/08/28 17:02:17;;;;;;;4.27;2.57;;;;;;;14.59;100.00;97273.37;18296957;32;20145;-59
2023/08/28 17:12:23;;;;;;;3.53;2.53;;;;;;;14.56;100.00;97277.50;18282550;32;20121;-59
2023/08/28 17:22:26;;;;;;;3.12;2.83;;;;;;;14.49;100.00;97287.19;18295768;32;20050;-58
2023/08/28 17:32:31;;;;;;;7.77;2.97;;;;;;;14.40;100.00;97292.53;18295239;32;20129;-59
2023/08/28 17:42:35;;;;;;;4.68;2.65;;;;;;;14.31;100.00;97295.19;18294431;32;20096;-59
2023/08/28 17:52:38;;;;;;;2.90;2.60;;;;;;;14.19;100.00;97295.69;18280494;32;20084;-59
2023/08/28 18:02:44;;;;;;;7.00;2.20;;;;;;;14.06;100.00;97300.03;18294331;32;20072;-58
2023/08/28 18:13:04;;;;;;;2.83;2.00;;;;;;;13.95;100.00;97305.94;18293862;32;20062;-59
2023/08/28 18:23:09;;;;;;;9.60;2.22;;;;;;;13.85;100.00;97306.94;18280025;32;20109;-59
2023/08/28 18:33:13;;;;;;;2.03;1.83;;;;;;;13.77;100.00;97318.50;18292688;32;20054;-58
2023/08/28 18:43:18;;;;;;;3.87;1.90;;;;;;;13.69;100.00;97333.56;18292556;32;20425;-58
2023/08/28 18:53:22;;;;;;;3.40;1.80;;;;;;;13.61;100.00;97345.94;18296941;32;20102;-58
2023/08/28 19:03:28;;;;;;;4.47;2.10;;;;;;;13.55;100.00;97349.84;18302699;32;20114;-59
2023/08/28 19:13:32;;;;;;;3.45;2.28;;;;;;;13.47;100.00;97345.91;18302419;32;20054;-59
2023/08/28 19:23:35;;;;;;;5.45;2.65;;;;;;;13.37;100.00;97359.62;18302580;32;20066;-59
2023/08/28 19:33:40;;;;;;;2.83;2.10;;;;;;;13.32;100.00;97360.50;18287598;32;20095;-58
2023/08/28 19:43:44;;;;;;;2.60;2.10;;;;;;;13.31;100.00;97366.25;18300913;32;20054;-58
2023/08/28 19:53:46;;;;;;;4.20;2.42;;;;;;;13.25;100.00;97370.13;18300167;32;20461;-58
2023/08/28 20:03:49;;;;;;;2.80;2.30;;;;;;;13.19;100.00;97350.38;18285656;32;20058;-58
2023/08/28 20:13:52;;;;;;;2.53;2.25;;;;;;;13.16;100.00;97354.50;18285727;32;20061;-59
2023/08/28 20:23:55;;;;;;;5.65;2.90;;;;;;;13.11;100.00;97354.56;18298798;32;20062;-58
2023/08/28 20:33:58;;;;;;;3.37;2.62;;;;;;;13.11;100.00;97351.06;18297854;32;20058;-58
2023/08/28 20:44:04;;;;;;;4.05;2.85;;;;;;;13.08;100.00;97348.94;18297629;32;20138;-58
2023/08/28 20:54:07;;;;;;;4.90;2.55;;;;;;;13.08;100.00;97343.50;18297376;32;20468;-59
2023/08/28 21:04:10;;;;;;;3.53;2.58;;;;;;;13.04;100.00;97365.00;18296681;32;20137;-59
2023/08/28 21:14:13;;;;;;;6.00;3.00;;;;;;;13.00;100.00;97377.53;18281950;32;20073;-58
2023/08/28 21:24:17;;;;;;;9.68;3.05;;;;;;;13.01;100.00;97365.59;18295627;32;20043;-58
2023/08/28 21:34:20;;;;;;;2.97;2.42;;;;;;;13.00;100.00;97363.97;18295250;32;20073;-55
2023/08/28 21:44:26;;;;;;;12.13;2.87;;;;;;;12.99;100.00;97356.91;18294855;32;20050;-58
2023/08/28 21:54:28;;;;;;;9.60;2.72;;;;;;;12.97;100.00;97351.00;18294577;32;20054;-58
2023/08/28 22:04:32;;;;;;;5.20;2.28;;;;;;;12.92;100.00;97345.62;18294167;32;20058;-58
2023/08/28 22:14:35;;;;;;;3.87;2.23;;;;;;;12.89;100.00;97338.88;18293443;32;20069;-59
2023/08/28 22:24:39;;;;;;;2.45;1.85;;;;;;;12.78;100.00;97331.97;18280834;32;20065;-59
2023/08/28 22:34:42;;;;;;;4.30;1.75;;;;;;;12.77;100.00;97333.91;18304088;32;20357;-58
2023/08/28 22:44:44;;;;;;;2.17;1.55;;;;;;;12.78;100.00;97329.28;18303814;32;20058;-59
2023/08/28 22:54:49;;;;;;;3.78;1.50;;;;;;;12.76;100.00;97310.56;18303021;32;20473;-59
2023/08/28 23:04:53;;;;;;;6.00;1.70;;;;;;;12.70;100.00;97314.44;18288872;32;20102;-58
2023/08/28 23:14:57;;;;;;;;;;;;;;;12.68;100.00;97303.87;18288507;32;20061;-59
2023/08/28 23:24:59;;;;;;;6.37;1.70;;;;;;;12.59;100.00;97285.84;18302224;32;19967;-59
2023/08/28 23:35:03;;;;;;;5.72;1.50;;;;;;;12.55;100.00;97299.19;18300785;32;20453;-58
2023/08/28 23:45:06;;;;;;;5.67;1.50;;;;;;;12.56;100.00;97297.28;18300513;32;20089;-59
2023/08/28 23:55:09;;;;;;;1.80;0.85;;;;;;;12.53;100.00;97280.50;18286240;32;20076;-59
